Inman, Kansas
Current Conditions -  °F | °C
As of 9:52 PM on Sunday 23 Nov 2014 (Local Time) from KHUT Reporting Station
Clear Clear  
Wind Chill:   Ceiling: Unl
Heat Index:   Visibility: 10mi
Dew Point: -2°   Wind: 18mph
Humidity: 53%   Direction: 330°NNW
Pressure: 29.67"   Gusts: 25mph
Location:  38.23°N, 97.77°W
Report Text: KHUT 240352Z 33016G22KT 10SM CLR 07/M02 A2967 RMK AO2 SLP040 T00671022
Loading
Personal Weather Stations






























Interactive Weather Map New forecast layout! Learn more

10-Day Weather Forecast

Advertisements
Track Severe Weather on mobile